Terminal Aerodrome Forecast
Issued by NWS

Home | Current Version | Previous Version | Text Only | Print | Product List | Glossary On
Versions: 1 2 3 4 5 6 7 8 9 10 11 12 13 14 15 16 17 18 19 20 21
000
FTUS44 KBMX 281900 AAA
TAFEET
TAF AMD
KEET 281925Z 2819/2918 31003KT P6SM OVC008
     FM290300 34005KT 5SM -RA BR BKN007 OVC012
     FM290900 00000KT 1 1/2SM BR OVC004
     FM291700 32003KT P6SM OVC007=

USA.gov is the U.S. government's official web portal to all federal, state and local government web resources and services.